Time;durP1;ratioP1;P1;durP2;ratioP2;P2;SDS_P1;SDS_P2;PMS_P1;PMS_P2;Temp;Humidity;BMP_temperature;BMP_pressure;BME280_temperature;BME280_humidity;BME280_pressure;Samples;Min_cycle;Max_cycle;Signal;HPM_P1;HPM_P2
2023/08/21 00:00:01;;;;;;;8.35;7.38;;;;;;;25.45;64.18;97792.44;4970913;28;20047;-86
2023/08/21 00:02:27;;;;;;;7.45;6.78;;;;;;;25.39;64.08;97780.41;4937363;28;20560;-88
2023/08/21 00:04:53;;;;;;;8.50;7.55;;;;;;;25.38;64.21;97786.88;4954845;28;20093;-87
2023/08/21 00:07:19;;;;;;;8.02;7.22;;;;;;;25.31;64.21;97789.25;4938738;28;20487;-88
2023/08/21 00:09:44;;;;;;;8.00;7.20;;;;;;;25.30;64.42;97779.72;4953731;28;20062;-88
2023/08/21 00:12:10;;;;;;;7.00;6.35;;;;;;;25.24;65.04;97777.22;4938227;28;20121;-87
2023/08/21 00:14:35;;;;;;;7.75;6.95;;;;;;;25.19;64.88;97777.41;4938005;28;20056;-86
2023/08/21 00:17:02;;;;;;;7.90;7.20;;;;;;;25.24;64.75;97776.41;4933324;28;20115;-88
2023/08/21 00:19:28;;;;;;;8.07;7.28;;;;;;;25.09;64.77;97759.16;4923648;28;20513;-88
2023/08/21 00:21:54;;;;;;;7.80;7.07;;;;;;;25.16;65.01;97775.38;4954425;28;20034;-88
2023/08/21 00:24:19;;;;;;;8.23;7.05;;;;;;;25.07;65.50;97766.69;4954776;28;20022;-88
2023/08/21 00:26:44;;;;;;;8.05;6.68;;;;;;;25.07;65.55;97771.22;4938354;28;20376;-88
2023/08/21 00:29:10;;;;;;;7.25;6.65;;;;;;;25.06;65.74;97775.78;4937390;28;20069;-87
2023/08/21 00:31:35;;;;;;;8.07;7.28;;;;;;;25.07;65.15;97782.69;4954626;28;20035;-87
2023/08/21 00:34:00;;;;;;;9.45;6.32;;;;;;;25.01;65.65;97763.41;4938605;28;20062;-86
2023/08/21 00:36:26;;;;;;;7.65;6.97;;;;;;;25.03;65.15;97776.41;4970674;28;20042;-87
2023/08/21 00:38:51;;;;;;;6.95;6.25;;;;;;;24.99;65.25;97778.19;4954237;28;20031;-86
2023/08/21 00:41:17;;;;;;;6.93;6.28;;;;;;;24.86;66.24;97764.78;4938115;28;20453;-87
2023/08/21 00:43:42;;;;;;;7.00;6.40;;;;;;;24.88;65.41;97774.31;4943240;28;20045;-86
2023/08/21 00:46:07;;;;;;;7.53;6.82;;;;;;;24.88;65.60;97774.31;4937925;28;20073;-87
2023/08/21 00:48:33;;;;;;;7.30;6.60;;;;;;;24.89;65.71;97790.00;4970417;28;20042;-87
2023/08/21 00:50:58;;;;;;;8.38;7.32;;;;;;;24.81;66.00;97785.50;4937525;28;20168;-87
2023/08/21 00:53:24;;;;;;;7.32;6.65;;;;;;;24.77;65.70;97774.72;4921731;28;20046;-88
2023/08/21 00:55:50;;;;;;;7.95;6.82;;;;;;;24.83;65.86;97778.75;4937845;28;20121;-88
2023/08/21 00:58:16;;;;;;;7.75;6.97;;;;;;;24.83;66.02;97773.44;4937551;28;20125;-88
2023/08/21 01:00:45;;;;;;;8.02;7.32;;;;;;;24.82;66.19;97776.41;4958216;23;20056;-85
2023/08/21 01:03:10;;;;;;;7.32;6.72;;;;;;;24.74;66.16;97774.56;4972195;28;20303;-84
2023/08/21 01:05:36;;;;;;;7.85;7.07;;;;;;;24.75;65.99;97770.81;4995988;28;20030;-84
2023/08/21 01:08:12;;;;;;;7.22;6.60;;;;;;;24.75;66.41;97779.59;4957156;28;20035;-84
2023/08/21 01:10:56;;;;;;;8.27;6.72;;;;;;;24.77;65.53;97779.25;4990093;28;20038;-84
2023/08/21 01:13:37;;;;;;;8.02;6.97;;;;;;;24.81;66.23;97780.16;4992046;28;20386;-84
2023/08/21 01:16:03;;;;;;;8.20;7.40;;;;;;;24.68;66.46;97781.97;5009524;28;20037;-86
2023/08/21 01:18:29;;;;;;;8.50;7.15;;;;;;;24.68;65.93;97789.97;4965529;28;20045;-84
2023/08/21 01:20:55;;;;;;;7.93;7.10;;;;;;;24.65;66.76;97787.94;4972245;28;20498;-85
2023/08/21 01:23:37;;;;;;;8.07;6.90;;;;;;;24.75;66.02;97792.91;4988838;28;20437;-84
2023/08/21 01:26:03;;;;;;;8.32;7.63;;;;;;;24.62;66.63;97784.03;4965461;28;20030;-85
2023/08/21 01:28:29;;;;;;;8.88;7.43;;;;;;;24.65;66.17;97787.94;4987421;28;20029;-84
2023/08/21 01:31:03;;;;;;;8.65;6.97;;;;;;;24.75;66.17;97792.13;4956430;28;20134;-85
2023/08/21 01:33:30;;;;;;;8.02;7.05;;;;;;;24.68;66.63;97792.63;4972539;28;20034;-84
2023/08/21 01:35:57;;;;;;;7.60;6.90;;;;;;;24.66;66.67;97787.63;4940363;28;20042;-85
2023/08/21 01:38:24;;;;;;;8.27;7.10;;;;;;;24.64;66.59;97787.16;4975339;28;20037;-84
2023/08/21 01:40:49;;;;;;;8.30;7.50;;;;;;;24.64;66.18;97787.16;4983813;28;20121;-85
2023/08/21 01:43:14;;;;;;;6.90;6.22;;;;;;;24.63;66.34;97785.59;4982832;28;20179;-85
2023/08/21 01:45:40;;;;;;;7.10;6.40;;;;;;;24.60;66.02;97786.22;4978151;28;20041;-85
2023/08/21 01:48:06;;;;;;;7.20;6.38;;;;;;;24.57;65.83;97781.53;4974342;28;20482;-85
2023/08/21 01:50:31;;;;;;;7.38;6.63;;;;;;;24.54;66.25;97792.84;4988380;28;20046;-84
2023/08/21 01:52:56;;;;;;;6.45;5.90;;;;;;;24.49;66.06;97785.78;4972311;28;20035;-85
2023/08/21 01:55:22;;;;;;;7.43;6.10;;;;;;;24.49;65.46;97785.78;4971683;28;20031;-84
2023/08/21 01:57:47;;;;;;;6.70;6.10;;;;;;;24.43;65.60;97788.94;4971783;28;20482;-85
2023/08/21 02:00:13;;;;;;;8.60;5.95;;;;;;;24.39;65.32;97783.50;4971214;28;20249;-84
2023/08/21 02:02:38;;;;;;;7.05;6.35;;;;;;;24.37;66.13;97792.88;4949962;28;20034;-84
2023/08/21 02:05:04;;;;;;;6.50;5.90;;;;;;;24.34;66.05;97794.31;4973183;28;20044;-85
2023/08/21 02:07:29;;;;;;;6.97;6.22;;;;;;;24.32;66.12;97791.19;4970738;28;20077;-84
2023/08/21 02:09:55;;;;;;;7.35;5.93;;;;;;;24.29;65.96;97787.28;4988562;28;20112;-78
2023/08/21 02:12:20;;;;;;;7.00;5.78;;;;;;;24.25;66.18;97785.59;4979963;28;20046;-78
2023/08/21 02:14:46;;;;;;;6.60;6.10;;;;;;;24.26;65.81;97789.81;4971317;28;20081;-79
2023/08/21 02:17:11;;;;;;;7.05;6.10;;;;;;;24.23;66.37;97793.91;4972979;28;20043;-79
2023/08/21 02:19:36;;;;;;;7.85;6.85;;;;;;;24.22;66.29;97796.88;4985771;28;20042;-79
2023/08/21 02:22:02;;;;;;;7.38;6.72;;;;;;;24.20;66.68;97797.19;4971741;28;20111;-78
2023/08/21 02:24:27;;;;;;;6.97;6.38;;;;;;;24.20;66.50;97794.53;4979343;28;20027;-78
2023/08/21 02:26:52;;;;;;;8.10;7.05;;;;;;;24.19;66.38;97786.84;4971348;28;20034;-78
2023/08/21 02:29:18;;;;;;;7.28;6.57;;;;;;;24.18;66.51;97785.28;4974077;28;20088;-78
2023/08/21 02:31:43;;;;;;;7.22;6.47;;;;;;;24.17;66.31;97789.06;4984414;28;20030;-78
2023/08/21 02:34:08;;;;;;;6.97;6.28;;;;;;;24.17;66.42;97791.72;4957373;28;20065;-78
2023/08/21 02:36:34;;;;;;;6.70;6.05;;;;;;;24.13;66.21;97788.91;4978154;28;20449;-78
2023/08/21 02:38:59;;;;;;;7.28;6.60;;;;;;;24.12;66.09;97790.78;4970914;28;20398;-78
2023/08/21 02:41:25;;;;;;;7.55;6.85;;;;;;;24.08;66.45;97781.88;4988817;28;20042;-79
2023/08/21 02:43:50;;;;;;;7.47;6.72;;;;;;;24.02;66.10;97783.13;4996374;28;20038;-78
2023/08/21 02:46:16;;;;;;;7.38;6.68;;;;;;;24.08;66.05;97779.22;4971977;28;20046;-78
2023/08/21 02:48:42;;;;;;;7.18;6.53;;;;;;;24.16;66.19;97792.81;4971087;28;20034;-78
2023/08/21 02:51:07;;;;;;;7.40;6.57;;;;;;;24.12;66.28;97776.69;4970581;28;20034;-78
2023/08/21 02:53:32;;;;;;;7.78;6.97;;;;;;;24.08;66.13;97787.19;4973976;28;20039;-78
2023/08/21 02:55:58;;;;;;;6.93;6.32;;;;;;;24.08;66.73;97786.44;4975444;28;20041;-79
2023/08/21 02:58:23;;;;;;;7.45;6.82;;;;;;;24.07;66.21;97785.63;4974611;28;20037;-78
2023/08/21 03:00:49;;;;;;;7.03;6.43;;;;;;;24.03;66.45;97781.28;4974305;28;20042;-78
2023/08/21 03:03:14;;;;;;;8.18;7.15;;;;;;;24.00;66.42;97780.03;4977284;28;20038;-78
2023/08/21 03:05:39;;;;;;;8.07;6.75;;;;;;;23.99;66.55;97775.81;4964774;28;20485;-78
2023/08/21 03:08:05;;;;;;;7.88;7.13;;;;;;;23.98;66.32;97779.56;4975305;28;20038;-78
2023/08/21 03:10:33;;;;;;;6.93;6.32;;;;;;;23.93;66.40;97777.06;4994306;28;20449;-79
2023/08/21 03:12:59;;;;;;;8.75;7.20;;;;;;;23.88;66.92;97771.94;4978770;28;20116;-78
2023/08/21 03:15:24;;;;;;;8.02;7.22;;;;;;;23.84;66.48;97781.66;4974694;28;20034;-79
2023/08/21 03:17:49;;;;;;;8.05;7.28;;;;;;;23.85;66.54;97778.66;4976173;28;20081;-79
2023/08/21 03:20:15;;;;;;;8.15;7.35;;;;;;;23.90;66.38;97780.34;4993761;28;20037;-78
2023/08/21 03:22:41;;;;;;;7.38;6.68;;;;;;;23.89;66.89;97776.16;4978010;28;20038;-78
2023/08/21 03:25:07;;;;;;;7.68;7.07;;;;;;;23.86;66.63;97772.25;4978669;28;20037;-79
2023/08/21 03:27:32;;;;;;;7.63;6.80;;;;;;;23.85;66.92;97767.22;4965386;28;20044;-79
2023/08/21 03:30:00;;;;;;;8.15;6.97;;;;;;;23.88;67.31;97775.34;4974212;28;20035;-78
2023/08/21 03:32:26;;;;;;;7.75;6.75;;;;;;;23.80;66.99;97778.00;4974445;28;20038;-78
2023/08/21 03:34:51;;;;;;;8.07;7.32;;;;;;;23.79;66.57;97777.22;4974461;28;20061;-78
2023/08/21 03:37:16;;;;;;;7.28;6.57;;;;;;;23.81;66.37;97772.41;4958464;28;20065;-78
2023/08/21 03:39:43;;;;;;;7.13;6.43;;;;;;;23.83;66.48;97780.06;4974182;28;20544;-78
2023/08/21 03:42:08;;;;;;;7.38;6.72;;;;;;;23.80;66.61;97775.34;4957684;28;20045;-78
2023/08/21 03:44:34;;;;;;;8.43;7.05;;;;;;;23.80;66.35;97783.31;4974376;28;20034;-78
2023/08/21 03:46:59;;;;;;;9.25;7.13;;;;;;;23.68;66.56;97774.13;5000649;28;20030;-78
2023/08/21 03:49:24;;;;;;;8.25;7.45;;;;;;;23.65;66.96;97781.97;4977777;28;20034;-78
2023/08/21 03:51:50;;;;;;;7.47;6.75;;;;;;;23.68;67.03;97787.44;4978307;28;20242;-78
2023/08/21 03:54:15;;;;;;;7.38;6.60;;;;;;;23.70;66.64;97779.91;4973691;28;20034;-78
2023/08/21 03:56:41;;;;;;;7.40;6.70;;;;;;;23.71;66.95;97778.81;4987807;28;20045;-79
2023/08/21 03:59:06;;;;;;;7.13;6.53;;;;;;;23.68;66.11;97786.63;4984679;28;20041;-79
2023/08/21 04:01:32;;;;;;;6.75;6.13;;;;;;;23.69;66.76;97794.28;4972044;28;20030;-78
2023/08/21 04:03:57;;;;;;;6.97;6.15;;;;;;;23.66;66.74;97786.16;4973507;28;20035;-78
2023/08/21 04:06:22;;;;;;;7.50;6.80;;;;;;;23.65;66.62;97784.63;4967094;28;20034;-78
2023/08/21 04:08:48;;;;;;;8.77;7.60;;;;;;;23.61;66.77;97792.41;4973663;28;20327;-78
2023/08/21 04:11:13;;;;;;;7.38;6.68;;;;;;;23.60;66.80;97788.22;4958944;28;20041;-78
2023/08/21 04:13:39;;;;;;;7.40;6.70;;;;;;;23.63;66.44;97792.91;4987399;28;20034;-78
2023/08/21 04:16:04;;;;;;;7.15;6.47;;;;;;;23.62;66.44;97791.34;4973851;28;20030;-78
2023/08/21 04:18:29;;;;;;;7.70;7.07;;;;;;;23.60;66.67;97795.41;4960745;28;20169;-79
2023/08/21 04:20:55;;;;;;;7.63;6.93;;;;;;;23.60;66.77;97798.84;4956631;28;20093;-78
2023/08/21 04:23:20;;;;;;;6.72;6.13;;;;;;;23.58;67.31;97793.06;4973730;28;20033;-78
2023/08/21 04:25:46;;;;;;;6.75;6.13;;;;;;;23.58;66.57;97789.59;4973788;28;20493;-78
2023/08/21 04:28:11;;;;;;;7.32;6.68;;;;;;;23.62;66.82;97796.66;4973218;28;20453;-78
2023/08/21 04:30:36;;;;;;;7.05;6.35;;;;;;;23.62;67.22;97801.97;4956854;28;20037;-83
2023/08/21 04:33:02;;;;;;;8.18;6.63;;;;;;;23.67;66.79;97793.06;4959541;28;20148;-78
2023/08/21 04:35:27;;;;;;;7.20;6.60;;;;;;;23.64;66.77;97794.44;4973236;28;20035;-78
2023/08/21 04:37:52;;;;;;;7.05;6.35;;;;;;;23.65;66.92;97798.69;4973564;28;20034;-78
2023/08/21 04:40:20;;;;;;;8.85;6.95;;;;;;;23.56;67.23;97806.66;4956776;28;20576;-79
2023/08/21 04:42:46;;;;;;;7.47;6.78;;;;;;;23.47;66.93;97810.41;4985451;28;20401;-78
2023/08/21 04:45:11;;;;;;;7.47;6.80;;;;;;;23.37;66.03;97801.69;4965648;28;20039;-78
2023/08/21 04:47:37;;;;;;;6.93;6.22;;;;;;;23.43;66.41;97798.84;4989132;28;20034;-79
2023/08/21 04:50:02;;;;;;;7.32;6.63;;;;;;;23.49;66.56;97808.22;4989254;28;20026;-78
2023/08/21 04:52:28;;;;;;;7.10;6.20;;;;;;;23.47;66.12;97810.41;4973394;28;20092;-78
2023/08/21 04:54:53;;;;;;;6.75;5.70;;;;;;;23.46;65.80;97808.84;4972981;28;20486;-78
2023/08/21 04:57:20;;;;;;;7.05;6.45;;;;;;;23.43;65.98;97804.94;4956578;28;20037;-79
2023/08/21 04:59:46;;;;;;;8.02;7.20;;;;;;;23.46;66.13;97808.84;4976619;28;20316;-78
2023/08/21 05:02:12;;;;;;;6.57;5.97;;;;;;;23.47;66.67;97810.41;4955457;28;20087;-78
2023/08/21 05:04:37;;;;;;;6.85;6.18;;;;;;;23.50;66.71;97818.53;4971712;28;20458;-79
2023/08/21 05:07:04;;;;;;;7.40;6.70;;;;;;;23.52;66.53;97823.56;4955982;28;20061;-78
2023/08/21 05:09:29;;;;;;;8.48;7.25;;;;;;;23.54;66.40;97818.69;4963457;28;20509;-79
2023/08/21 05:11:55;;;;;;;7.38;6.68;;;;;;;23.57;66.55;97818.06;4971021;28;20096;-78
2023/08/21 05:14:21;;;;;;;6.40;5.75;;;;;;;23.59;66.95;97821.19;4955432;28;20038;-78
2023/08/21 05:16:47;;;;;;;7.57;6.85;;;;;;;23.74;66.74;97818.06;4955185;28;20516;-78
2023/08/21 05:19:12;;;;;;;8.18;7.38;;;;;;;23.96;66.25;97826.97;4974573;28;20045;-78
2023/08/21 05:21:37;;;;;;;7.28;6.53;;;;;;;24.07;66.38;97822.88;5007946;28;20092;-79
2023/08/21 05:24:03;;;;;;;8.07;7.38;;;;;;;24.15;66.68;97817.88;4973775;28;20065;-78
2023/08/21 05:26:28;;;;;;;7.75;7.05;;;;;;;24.21;66.09;97819.25;4955278;28;20030;-78
2023/08/21 05:28:54;;;;;;;7.25;6.65;;;;;;;24.34;65.77;97823.59;4990729;28;20464;-78
2023/08/21 05:31:19;;;;;;;6.70;6.10;;;;;;;24.35;65.69;97824.38;4971512;28;20097;-79
2023/08/21 05:33:45;;;;;;;7.60;6.90;;;;;;;24.32;65.29;97831.13;4974338;28;20030;-79
2023/08/21 05:36:10;;;;;;;7.93;7.32;;;;;;;24.34;64.98;97828.91;4972370;28;20136;-78
2023/08/21 05:38:36;;;;;;;6.90;6.30;;;;;;;24.32;65.02;97825.78;4974531;28;20030;-79
2023/08/21 05:41:01;;;;;;;7.07;6.47;;;;;;;24.35;65.07;97827.81;4982055;28;20568;-85
2023/08/21 05:43:26;;;;;;;8.43;7.13;;;;;;;24.40;65.49;97832.97;4963929;28;20081;-87
2023/08/21 05:45:52;;;;;;;7.18;6.47;;;;;;;24.44;65.36;97827.78;4971265;28;20046;-86
2023/08/21 05:48:17;;;;;;;7.43;6.72;;;;;;;24.55;65.86;97836.22;4965247;28;20041;-86
2023/08/21 05:50:42;;;;;;;7.75;7.15;;;;;;;24.60;66.32;97836.06;5003658;28;20034;-85
2023/08/21 05:53:08;;;;;;;8.75;7.85;;;;;;;24.67;66.66;97839.75;4982745;28;20078;-86
2023/08/21 05:55:33;;;;;;;8.68;7.78;;;;;;;24.73;66.32;97842.25;4975751;28;20120;-87
2023/08/21 05:57:59;;;;;;;9.57;8.02;;;;;;;24.78;66.52;97840.19;4975383;28;20450;-85
2023/08/21 06:00:24;;;;;;;8.68;7.65;;;;;;;24.89;66.10;97853.16;4955461;28;20411;-86
2023/08/21 06:02:50;;;;;;;8.55;7.28;;;;;;;24.97;65.69;97847.00;4998096;28;20383;-86
2023/08/21 06:05:15;;;;;;;7.85;7.15;;;;;;;25.07;65.16;97851.16;4974068;28;20068;-78
2023/08/21 06:07:41;;;;;;;7.03;6.53;;;;;;;25.17;65.00;97850.78;4975166;28;20722;-79
2023/08/21 06:10:08;;;;;;;7.47;6.78;;;;;;;25.25;65.37;97847.28;5008180;28;20030;-79
2023/08/21 06:12:33;;;;;;;7.72;7.03;;;;;;;25.29;64.78;97847.44;4978621;28;20031;-79
2023/08/21 06:14:59;;;;;;;7.85;6.82;;;;;;;25.38;64.99;97856.19;4971901;28;20434;-79
2023/08/21 06:17:24;;;;;;;8.10;7.30;;;;;;;25.53;64.18;97858.25;4958354;28;20120;-78
2023/08/21 06:19:49;;;;;;;7.53;6.82;;;;;;;25.60;64.27;97850.50;4990920;28;20034;-78
2023/08/21 06:22:15;;;;;;;6.95;6.40;;;;;;;25.77;63.96;97862.13;4988917;28;20101;-78
2023/08/21 06:24:41;;;;;;;7.20;6.60;;;;;;;25.86;63.60;97859.38;4971632;28;20066;-78
2023/08/21 06:27:07;;;;;;;8.52;7.72;;;;;;;25.95;63.42;97855.56;4989734;28;20037;-79
2023/08/21 06:29:32;;;;;;;8.30;7.50;;;;;;;26.07;62.62;97846.03;4981902;28;20077;-79
2023/08/21 06:31:57;;;;;;;8.32;7.25;;;;;;;26.19;62.48;97854.06;4959418;28;20057;-79
2023/08/21 06:34:23;;;;;;;8.35;7.55;;;;;;;26.29;62.24;97856.31;4943673;28;20030;-78
2023/08/21 06:36:48;;;;;;;9.07;8.07;;;;;;;26.38;62.53;97853.53;4991737;28;20092;-79
2023/08/21 06:39:13;;;;;;;8.80;8.02;;;;;;;26.44;62.09;97859.44;4975553;28;20038;-79
2023/08/21 06:41:39;;;;;;;8.52;7.82;;;;;;;26.49;61.51;97856.56;4974740;28;20038;-79
2023/08/21 06:44:04;;;;;;;9.27;7.93;;;;;;;26.60;61.18;97855.00;4976788;28;20026;-79
2023/08/21 06:46:30;;;;;;;9.10;8.20;;;;;;;26.74;61.83;97857.38;4991846;28;20046;-78
2023/08/21 06:48:55;;;;;;;9.05;8.13;;;;;;;26.83;61.00;97851.94;4963352;28;20046;-78
2023/08/21 06:51:20;;;;;;;8.18;7.38;;;;;;;26.90;60.54;97852.13;4975160;28;20069;-87
2023/08/21 06:53:46;;;;;;;8.45;7.75;;;;;;;27.06;59.76;97852.25;4958910;28;20525;-85
2023/08/21 06:56:12;;;;;;;8.60;7.80;;;;;;;27.30;59.03;97858.69;4952759;28;20038;-87
2023/08/21 06:58:37;;;;;;;8.75;7.80;;;;;;;27.36;59.15;97855.44;4943500;28;20038;-86
2023/08/21 07:01:03;;;;;;;8.73;7.85;;;;;;;27.48;59.02;97859.22;4959558;28;20038;-83
2023/08/21 07:03:28;;;;;;;8.10;7.32;;;;;;;27.70;58.09;97856.00;4983573;28;20469;-86
2023/08/21 07:05:57;;;;;;;9.63;8.45;;;;;;;27.84;57.83;97856.38;4968347;28;20080;-86
2023/08/21 07:08:23;;;;;;;9.02;7.93;;;;;;;27.87;57.09;97851.47;4978368;28;20029;-87
2023/08/21 07:10:48;;;;;;;8.73;7.88;;;;;;;28.14;56.77;97863.31;4972262;28;20069;-86
2023/08/21 07:13:14;;;;;;;7.97;7.25;;;;;;;28.38;56.55;97862.38;4992137;28;20071;-87
2023/08/21 07:15:39;;;;;;;8.80;7.85;;;;;;;28.40;56.25;97865.50;4959251;28;20125;-87
2023/08/21 07:18:05;;;;;;;8.65;7.63;;;;;;;28.53;55.13;97869.66;4981736;28;20104;-86
2023/08/21 07:20:30;;;;;;;8.52;7.72;;;;;;;28.65;55.62;97863.47;4978153;28;20033;-86
2023/08/21 07:22:56;;;;;;;8.02;7.32;;;;;;;28.85;54.35;97866.19;5002870;28;20046;-85
2023/08/21 07:25:21;;;;;;;8.13;7.32;;;;;;;29.02;54.41;97863.13;4960735;28;20092;-86
2023/08/21 07:27:47;;;;;;;8.88;7.35;;;;;;;29.00;54.38;97864.63;4992691;28;20038;-86
2023/08/21 07:30:12;;;;;;;8.57;7.88;;;;;;;29.09;53.87;97862.50;4967572;28;20108;-85
2023/08/21 07:32:38;;;;;;;7.38;6.68;;;;;;;29.38;53.09;97868.53;4973030;28;20656;-86
2023/08/21 07:35:04;;;;;;;8.30;7.50;;;;;;;29.45;52.99;97869.44;4966134;28;20041;-85
2023/08/21 07:37:29;;;;;;;8.80;7.72;;;;;;;29.63;52.30;97861.75;4962483;28;20026;-87
2023/08/21 07:39:57;;;;;;;7.90;7.15;;;;;;;29.59;51.58;97860.88;4992775;28;20037;-87
2023/08/21 07:42:23;;;;;;;7.53;6.82;;;;;;;29.77;51.05;97865.88;4974967;28;20478;-87
2023/08/21 07:44:48;;;;;;;10.43;7.85;;;;;;;29.86;50.66;97861.06;4990947;28;20027;-86
2023/08/21 07:47:14;;;;;;;7.90;7.10;;;;;;;30.09;50.45;97871.03;4993746;28;20042;-87
2023/08/21 07:49:39;;;;;;;8.38;7.57;;;;;;;30.16;50.47;97863.09;4972203;28;20462;-85
2023/08/21 07:52:05;;;;;;;8.20;7.38;;;;;;;30.35;50.27;97865.78;4975346;28;20037;-87
2023/08/21 07:54:30;;;;;;;7.90;7.20;;;;;;;30.61;49.67;97867.75;4962145;28;20120;-85
2023/08/21 07:56:55;;;;;;;6.97;6.30;;;;;;;30.77;48.55;97878.34;4970680;28;20486;-87
2023/08/21 07:59:22;;;;;;;8.07;7.30;;;;;;;30.71;49.09;97874.44;4969198;28;20073;-86
2023/08/21 08:01:47;;;;;;;7.40;6.70;;;;;;;30.77;49.04;97872.19;4993287;28;20117;-79
2023/08/21 08:04:12;;;;;;;7.75;7.10;;;;;;;30.92;47.91;97865.91;4975964;28;20546;-79
2023/08/21 08:06:38;;;;;;;7.63;6.90;;;;;;;31.16;48.61;97870.09;4997071;28;20046;-79
2023/08/21 08:09:03;;;;;;;7.22;6.70;;;;;;;31.23;47.14;97868.66;4973689;28;20045;-78
2023/08/21 08:11:29;;;;;;;8.15;7.35;;;;;;;31.44;47.37;97870.84;4973184;28;20490;-78
2023/08/21 08:13:55;;;;;;;7.75;6.78;;;;;;;31.41;47.45;97875.03;4989994;28;20516;-78
2023/08/21 08:16:20;;;;;;;7.22;6.50;;;;;;;31.59;46.88;97863.75;4957247;28;20034;-78
2023/08/21 08:18:46;;;;;;;7.28;6.68;;;;;;;31.67;46.62;97868.84;4976801;28;20038;-78
2023/08/21 08:21:11;;;;;;;6.55;6.05;;;;;;;32.00;46.34;97861.09;4967652;28;20048;-78
2023/08/21 08:23:36;;;;;;;6.38;5.65;;;;;;;32.20;45.38;97873.25;4989489;28;20065;-78
2023/08/21 08:26:02;;;;;;;6.45;5.78;;;;;;;32.28;45.62;97864.06;4957884;28;20034;-78
2023/08/21 08:28:27;;;;;;;7.22;6.47;;;;;;;32.38;43.75;97864.56;4978432;28;20100;-78
2023/08/21 08:30:53;;;;;;;5.60;5.10;;;;;;;32.23;44.09;97861.72;4976994;28;20493;-78
2023/08/21 08:33:18;;;;;;;6.28;5.68;;;;;;;32.51;44.38;97855.03;4989477;28;20038;-78
2023/08/21 08:35:44;;;;;;;6.13;5.68;;;;;;;32.46;43.12;97855.38;4972728;28;20035;-78
2023/08/21 08:38:18;;;;;;;6.53;5.88;;;;;;;32.83;43.45;97857.19;4989596;28;20037;-78
2023/08/21 08:40:45;;;;;;;5.65;5.18;;;;;;;32.71;42.24;97857.50;4956995;28;20034;-77
2023/08/21 08:43:12;;;;;;;5.65;4.35;;;;;;;32.84;41.78;97859.53;4952932;28;20026;-78
2023/08/21 08:45:38;;;;;;;4.57;4.18;;;;;;;32.91;40.33;97850.72;4979708;28;20452;-78
2023/08/21 08:48:04;;;;;;;4.22;3.85;;;;;;;33.26;40.71;97865.56;4990236;28;20042;-78
2023/08/21 08:50:31;;;;;;;6.20;4.45;;;;;;;33.45;39.36;97858.31;4978524;28;20041;-78
2023/08/21 08:52:57;;;;;;;4.30;4.00;;;;;;;33.35;40.46;97859.84;4960169;28;20049;-78
2023/08/21 08:55:23;;;;;;;4.55;4.25;;;;;;;33.59;40.17;97853.00;4956892;28;20401;-77
2023/08/21 08:57:49;;;;;;;4.65;4.32;;;;;;;33.71;40.62;97866.16;4972514;28;20027;-77
2023/08/21 09:00:14;;;;;;;5.30;4.13;;;;;;;33.49;39.46;97861.81;4971873;28;20054;-78
2023/08/21 09:02:40;;;;;;;3.90;3.65;;;;;;;33.64;38.69;97855.31;4956444;28;20042;-78
2023/08/21 09:05:06;;;;;;;4.82;4.43;;;;;;;33.55;38.62;97860.28;4967065;28;20084;-78
2023/08/21 09:07:32;;;;;;;5.57;3.67;;;;;;;33.84;38.47;97860.41;4957413;28;20509;-78
2023/08/21 09:09:57;;;;;;;4.18;3.88;;;;;;;34.18;38.51;97855.44;4975586;28;20042;-77
2023/08/21 09:12:23;;;;;;;4.38;4.07;;;;;;;34.03;38.31;97851.94;4956818;28;20038;-77
2023/08/21 09:14:48;;;;;;;3.97;3.72;;;;;;;34.40;37.12;97858.97;4960544;28;20030;-77
2023/08/21 09:17:14;;;;;;;3.88;3.58;;;;;;;34.54;35.96;97860.13;4956502;28;20030;-78
2023/08/21 09:19:40;;;;;;;3.80;3.50;;;;;;;34.40;36.83;97853.53;4989252;28;20122;-78
2023/08/21 09:22:17;;;;;;;3.80;3.50;;;;;;;34.58;35.93;97844.66;4976404;28;20042;-78
2023/08/21 09:25:14;;;;;;;4.20;3.80;;;;;;;34.47;35.53;97848.13;4978282;28;20081;-78
2023/08/21 09:27:40;;;;;;;4.20;3.90;;;;;;;34.69;35.41;97842.72;4967455;28;20034;-78
2023/08/21 09:30:09;;;;;;;3.58;3.28;;;;;;;34.82;35.34;97843.88;4939918;28;20038;-78
2023/08/21 09:32:59;;;;;;;4.53;4.13;;;;;;;35.00;37.11;97846.53;4971915;28;20026;-78
2023/08/21 09:35:26;;;;;;;3.70;3.40;;;;;;;35.11;35.42;97838.38;4975773;28;20034;-78
2023/08/21 09:37:52;;;;;;;3.63;3.42;;;;;;;35.27;33.81;97843.41;4991985;28;20030;-78
2023/08/21 09:40:19;;;;;;;3.58;3.17;;;;;;;35.30;33.16;97836.41;4988544;28;20069;-77
2023/08/21 09:42:44;;;;;;;4.03;3.72;;;;;;;35.47;33.43;97837.50;4952178;28;20027;-77
2023/08/21 09:45:09;;;;;;;4.88;3.40;;;;;;;35.31;33.07;97837.97;4989712;28;20296;-78
2023/08/21 09:47:36;;;;;;;4.00;3.65;;;;;;;35.33;33.38;97839.09;4971892;28;20076;-77
2023/08/21 09:50:02;;;;;;;4.53;3.85;;;;;;;35.18;34.22;97835.66;4971928;28;20146;-78
2023/08/21 09:52:28;;;;;;;3.33;3.03;;;;;;;35.31;32.00;97837.97;4972344;28;20457;-77
2023/08/21 09:54:54;;;;;;;3.35;3.05;;;;;;;35.45;32.08;97835.19;4971802;28;20042;-78
2023/08/21 09:57:21;;;;;;;3.75;3.38;;;;;;;35.67;30.98;97835.84;4991020;28;20120;-78
2023/08/21 09:59:47;;;;;;;3.25;3.05;;;;;;;35.75;30.40;97833.91;4975822;28;20041;-77
2023/08/21 10:02:13;;;;;;;3.95;3.55;;;;;;;35.63;31.14;97830.44;4979976;28;20109;-78
2023/08/21 10:04:40;;;;;;;3.65;3.35;;;;;;;35.67;32.53;97835.84;4971915;28;20497;-77
2023/08/21 10:07:06;;;;;;;3.60;3.30;;;;;;;35.36;33.52;97838.31;4957341;28;20435;-77
2023/08/21 10:09:31;;;;;;;3.38;3.10;;;;;;;35.43;32.72;97834.81;4979245;28;20042;-77
2023/08/21 10:11:57;;;;;;;3.67;3.30;;;;;;;35.34;33.05;97834.47;4968526;28;20395;-78
2023/08/21 10:14:24;;;;;;;3.30;3.00;;;;;;;35.80;32.68;97828.06;4971915;28;20093;-77
2023/08/21 10:16:51;;;;;;;4.18;3.80;;;;;;;36.22;31.91;97817.34;4972118;28;20057;-77
2023/08/21 10:19:17;;;;;;;3.67;3.22;;;;;;;36.34;33.91;97828.44;4974149;28;20405;-77
2023/08/21 10:21:46;;;;;;;3.83;3.40;;;;;;;36.39;34.76;97823.78;4974993;28;20093;-77
2023/08/21 10:24:12;;;;;;;3.97;3.50;;;;;;;36.08;33.30;97815.47;4990690;28;20030;-78
2023/08/21 10:26:39;;;;;;;3.35;3.05;;;;;;;36.39;33.36;97824.53;4993543;28;20036;-78
2023/08/21 10:29:07;;;;;;;3.40;3.10;;;;;;;36.76;32.84;97817.63;4980859;28;20541;-77
2023/08/21 10:31:38;;;;;;;4.30;3.70;;;;;;;36.77;31.15;97815.69;4985906;28;20544;-78
2023/08/21 10:34:11;;;;;;;4.00;3.60;;;;;;;36.72;33.43;97820.41;4971570;28;20030;-78
2023/08/21 10:37:04;;;;;;;3.70;3.40;;;;;;;36.72;31.88;97809.53;4955452;28;20038;-78
2023/08/21 10:39:31;;;;;;;4.18;3.90;;;;;;;36.93;31.30;97813.16;4981423;28;20520;-78
2023/08/21 10:42:04;;;;;;;4.63;3.78;;;;;;;36.78;32.52;97811.81;4958763;28;20324;-78
2023/08/21 10:44:38;;;;;;;3.73;3.37;;;;;;;36.65;31.86;97812.28;4962353;28;20038;-78
2023/08/21 10:47:40;;;;;;;3.75;3.45;;;;;;;36.82;32.71;97810.56;4971195;28;20096;-84
2023/08/21 10:50:07;;;;;;;4.07;3.78;;;;;;;37.23;31.68;97808.97;4970964;28;20039;-85
2023/08/21 10:52:41;;;;;;;3.78;3.47;;;;;;;37.48;32.14;97800.50;4972053;28;20516;-85
2023/08/21 10:55:09;;;;;;;4.10;3.80;;;;;;;37.27;32.34;97806.97;4973849;28;20034;-86
2023/08/21 10:57:35;;;;;;;3.67;3.47;;;;;;;37.16;30.74;97804.38;4978019;28;20080;-83
2023/08/21 11:00:04;;;;;;;3.63;3.42;;;;;;;37.49;30.44;97805.50;4970719;28;20026;-85
2023/08/21 11:02:30;;;;;;;3.80;3.38;;;;;;;37.50;29.85;97798.16;4972595;28;20039;-84
2023/08/21 11:04:57;;;;;;;3.78;3.47;;;;;;;37.47;30.84;97807.88;4956466;28;20527;-84
2023/08/21 11:07:22;;;;;;;3.75;3.45;;;;;;;37.46;28.76;97809.06;4978953;28;20038;-83
2023/08/21 11:09:48;;;;;;;3.83;3.53;;;;;;;37.37;28.74;97805.31;4978566;28;20169;-85
2023/08/21 11:12:16;;;;;;;4.45;4.03;;;;;;;37.71;27.66;97805.25;4962301;28;20160;-83
2023/08/21 11:14:42;;;;;;;3.55;3.20;;;;;;;37.98;28.87;97797.06;4965914;28;20117;-82
2023/08/21 11:17:08;;;;;;;3.22;2.92;;;;;;;38.12;28.30;97801.53;4975140;28;20189;-83
2023/08/21 11:19:34;;;;;;;3.40;3.20;;;;;;;38.12;28.04;97800.78;4973447;28;20481;-82
2023/08/21 11:22:03;;;;;;;3.15;3.00;;;;;;;37.75;28.79;97800.53;4976253;28;20082;-83
2023/08/21 11:24:38;;;;;;;3.38;3.08;;;;;;;38.10;29.01;97800.41;4974850;28;20037;-84
2023/08/21 11:27:07;;;;;;;3.10;2.90;;;;;;;37.87;28.09;97801.13;5011175;28;20073;-83
2023/08/21 11:29:37;;;;;;;3.15;2.95;;;;;;;38.11;28.35;97805.41;4981299;28;20180;-82